Time;durP1;ratioP1;P1;durP2;ratioP2;P2;SDS_P1;SDS_P2;PMS_P1;PMS_P2;Temp;Humidity;BMP_temperature;BMP_pressure;BME280_temperature;BME280_humidity;BME280_pressure;Samples;Min_cycle;Max_cycle;Signal;HPM_P1;HPM_P2
2021/09/13 00:04:12;;;;;;;;;7.33;6.67;;;;;20.27;50.95;101430.59;4960664;28;45247;-93
2021/09/13 00:09:43;;;;;;;;;6.00;6.00;;;;;20.29;50.70;101440.38;4974057;23;45581;-92
2021/09/13 00:12:27;;;;;;;;;;;;;;;;;;;;;
2021/09/13 00:21:24;;;;;;;;;;;;;;;;;;;;;
2021/09/13 00:29:42;;;;;;;;;;;;;;;;;;;;;
2021/09/13 00:35:39;;;;;;;;;5.33;5.00;;;;;20.35;50.61;101408.25;4931683;23;45835;-91
2021/09/13 00:38:41;;;;;;;;;;;;;;;;;;;;;
2021/09/13 00:41:40;;;;;;;;;7.00;6.00;;;;;20.19;51.13;101371.97;4965192;28;68002;-95
2021/09/13 00:45:02;;;;;;;;;7.33;6.00;;;;;20.33;50.76;101402.03;4946886;28;45688;-92
2021/09/13 00:51:11;;;;;;;;;6.33;6.00;;;;;20.24;50.84;101397.69;4963964;28;45216;-91
2021/09/13 00:54:26;;;;;;;;;5.00;5.00;;;;;20.27;50.91;101395.91;4952640;28;45590;-92
2021/09/13 01:00:17;;;;;;;;;;;;;;;;;;;;;
2021/09/13 01:02:55;;;;;;;;;5.00;5.00;;;;;20.11;51.09;101383.66;4983949;23;45690;-93
2021/09/13 01:06:13;;;;;;;;;;;;;;;;;;;;;
2021/09/13 01:09:07;;;;;;;;;6.33;5.00;;;;;20.09;51.34;101396.13;4871865;28;62719;-93
2021/09/13 01:21:13;;;;;;;;;;;;;;;;;;;;;
2021/09/13 01:30:07;;;;;;;;;;;;;;;;;;;;;
2021/09/13 01:33:07;;;;;;;;;6.00;5.00;;;;;19.88;51.73;101390.06;4945969;28;62086;-92
2021/09/13 01:36:29;;;;;;;;;;;;;;;;;;;;;
2021/09/13 01:57:04;;;;;;;;;;;;;;;;;;;;;
2021/09/13 02:00:10;;;;;;;;;;;;;;;;;;;;;
2021/09/13 02:02:48;;;;;;;;;7.00;6.00;;;;;19.65;52.12;101391.22;4963099;28;45325;-92
2021/09/13 02:05:26;;;;;;;;;6.33;6.33;;;;;19.69;52.26;101400.09;4957279;28;45315;-92
2021/09/13 02:08:17;;;;;;;;;;;;;;;;;;;;;
2021/09/13 02:11:38;;;;;;;;;8.00;7.00;;;;;19.64;52.26;101388.56;4979813;28;75147;-91
2021/09/13 02:14:21;;;;;;;;;6.00;5.33;;;;;19.60;52.59;101389.50;4964692;28;45110;-93
2021/09/13 02:21:02;;;;;;;;;;;;;;;;;;;;;
2021/09/13 02:23:28;;;;;;;;;8.00;6.00;;;;;19.43;52.34;101380.78;4970550;28;45269;-91
2021/09/13 02:26:35;;;;;;;;;8.67;7.67;;;;;19.45;52.34;101380.75;4956858;28;44870;-91
2021/09/13 02:29:01;;;;;;;;;6.67;5.67;;;;;19.28;52.62;101365.81;4954336;28;45318;-91
2021/09/13 02:32:01;;;;;;;;;;;;;;;;;;;;;
2021/09/13 02:34:52;;;;;;;;;9.00;7.00;;;;;19.30;52.44;101388.00;4959812;28;75624;-93
2021/09/13 02:37:45;;;;;;;;;5.00;5.00;;;;;19.24;52.49;101384.50;4963960;23;45480;-91
2021/09/13 02:46:44;;;;;;;;;;;;;;;;;;;;;
2021/09/13 03:02:16;;;;;;;;;7.00;6.00;;;;;19.02;53.58;101365.97;4973963;23;45496;-91
2021/09/13 03:05:08;;;;;;;;;;;;;;;;;;;;;
2021/09/13 03:08:08;;;;;;;;;5.67;5.67;;;;;19.07;53.58;101375.72;4965215;28;75794;-91
2021/09/13 03:11:08;;;;;;;;;;;;;;;;;;;;;
2021/09/13 03:13:48;;;;;;;;;7.00;7.00;;;;;18.86;53.66;101347.44;4962139;28;67912;-91
2021/09/13 03:16:44;;;;;;;;;8.33;8.00;;;;;18.95;53.99;101368.69;4945807;28;45420;-93
2021/09/13 03:22:29;;;;;;;;;;;;;;;;;;;;;
2021/09/13 03:28:04;;;;;;;;;6.67;6.67;;;;;18.79;54.34;101353.72;5432949;23;60852;-92
2021/09/13 03:30:51;;;;;;;;;;;;;;;;;;;;;
2021/09/13 03:36:42;;;;;;;;;;;;;;;;;;;;;
2021/09/13 03:39:18;;;;;;;;;;;;;;;;;;;;;
2021/09/13 03:42:10;;;;;;;;;11.00;8.67;;;;;18.75;54.58;101368.84;4826528;29;75633;-92
2021/09/13 03:59:34;;;;;;;;;7.00;7.00;;;;;18.49;55.00;101345.91;2880025;23;47118;-90
2021/09/13 04:02:15;;;;;;;;;10.33;9.00;;;;;18.43;55.36;101337.94;4923413;28;46419;-92
2021/09/13 04:11:36;;;;;;;;;9.00;9.00;;;;;18.48;55.73;101358.34;5265667;23;45535;31
2021/09/13 04:18:33;;;;;;;;;;;;;;;;;;;;;
2021/09/13 04:24:59;;;;;;;;;;;;;;;;;;;;;
2021/09/13 04:27:46;;;;;;;;;;;;;;;;;;;;;
2021/09/13 04:30:30;;;;;;;;;;;;;;;;;;;;;
2021/09/13 04:33:03;;;;;;;;;8.33;7.67;;;;;18.35;56.05;101332.69;4962673;28;74261;-92
2021/09/13 04:38:33;;;;;;;;;11.33;10.33;;;;;18.34;56.34;101337.13;4947408;26;45532;-92
2021/09/13 04:41:16;;;;;;;;;;;;;;;;;;;;;
2021/09/13 04:43:46;;;;;;;;;14.00;12.67;;;;;18.39;56.51;101358.38;4969109;28;71919;-92
2021/09/13 04:46:42;;;;;;;;;12.00;12.00;;;;;18.32;56.00;101349.53;4970539;28;45370;-92
2021/09/13 04:52:28;;;;;;;;;11.67;10.33;;;;;18.33;56.36;101351.34;5519268;23;46529;-93
2021/09/13 04:55:19;;;;;;;;;12.00;11.00;;;;;18.18;56.49;101325.69;4959968;28;45425;-92
2021/09/13 04:57:59;;;;;;;;;;;;;;;;;;;;;
2021/09/13 05:00:32;;;;;;;;;15.33;12.00;;;;;18.27;56.76;101351.38;4866190;29;64996;-93
2021/09/13 05:03:31;;;;;;;;;;;;;;;;;;;;;
2021/09/13 05:06:21;;;;;;;;;18.00;16.00;;;;;18.10;56.55;101322.13;4963687;28;72987;-91
2021/09/13 05:09:07;;;;;;;;;22.33;18.67;;;;;18.09;56.65;101321.25;4967694;28;45481;-94
2021/09/13 05:11:46;;;;;;;;;;;;;;;;;;;;;
2021/09/13 05:14:26;;;;;;;;;18.33;15.33;;;;;18.16;56.79;101330.97;4976345;28;76393;-93
2021/09/13 05:16:55;;;;;;;;;16.00;12.00;;;;;18.08;57.02;101313.28;4961959;28;44926;-92
2021/09/13 05:19:29;;;;;;;;;13.67;11.67;;;;;18.07;56.56;101315.03;4963012;28;45700;-92
2021/09/13 05:22:02;;;;;;;;;14.33;12.00;;;;;18.20;56.85;101328.31;4958804;28;45383;-91
2021/09/13 05:27:26;;;;;;;;;13.00;10.00;;;;;18.10;56.70;101317.72;4975340;28;45517;-90
2021/09/13 05:30:16;;;;;;;;;;;;;;;;;;;;;
2021/09/13 05:32:59;;;;;;;;;12.33;11.00;;;;;18.14;56.80;101319.47;4984583;28;63521;-90
2021/09/13 05:35:43;;;;;;;;;;;;;;;;;;;;;
2021/09/13 05:43:49;;;;;;;;;13.67;11.00;;;;;18.18;57.22;101325.69;4992708;28;46329;-92
2021/09/13 05:46:18;;;;;;;;;10.00;9.33;;;;;18.13;57.32;101325.66;4986467;28;47063;-90
2021/09/13 05:48:46;;;;;;;;;11.00;11.00;;;;;18.24;57.50;101330.06;4984159;28;45433;-91
2021/09/13 05:51:50;;;;;;;;;;;;;;;;;;;;;
2021/09/13 05:54:22;;;;;;;;;12.33;12.33;;;;;18.14;57.55;101314.13;4980061;28;64036;-91
2021/09/13 05:57:11;;;;;;;;;12.67;12.00;;;;;18.21;57.56;101327.44;4979202;28;48214;-93
2021/09/13 06:02:42;;;;;;;;;;;;;;;;;;;;;
2021/09/13 06:05:21;;;;;;;;;13.33;10.33;;;;;18.14;57.56;101319.47;4979470;28;63490;-91
2021/09/13 06:07:58;;;;;;;;;11.67;11.67;;;;;18.14;57.26;101323.88;4963778;28;46987;-92
2021/09/13 06:10:41;;;;;;;;;;;;;;;;;;;;;
2021/09/13 06:13:25;;;;;;;;;11.33;11.00;;;;;18.12;57.62;101315.91;4962552;28;68706;-93
2021/09/13 06:15:50;;;;;;;;;12.33;10.00;;;;;18.25;57.69;101346.03;4962785;28;45416;-90
2021/09/13 06:18:16;;;;;;;;;12.67;11.67;;;;;18.25;57.92;101338.03;4961319;28;45321;-86
2021/09/13 06:20:41;;;;;;;;;15.67;11.67;;;;;18.28;57.56;101340.69;4960824;28;45341;-88
2021/09/13 06:23:07;;;;;;;;;11.33;11.33;;;;;18.27;57.55;101338.06;4960789;28;45229;-88
2021/09/13 06:25:32;;;;;;;;;12.67;12.67;;;;;18.27;57.42;101344.25;4960763;28;45304;-89
2021/09/13 06:27:57;;;;;;;;;14.00;13.67;;;;;18.29;57.52;101344.25;4960634;28;46538;-85
2021/09/13 06:30:23;;;;;;;;;15.00;12.00;;;;;18.29;57.52;101344.25;4960810;28;45386;-91
2021/09/13 06:32:48;;;;;;;;;17.33;15.67;;;;;18.29;57.57;101341.59;4961350;28;45378;-90
2021/09/13 06:35:14;;;;;;;;;15.33;13.67;;;;;18.27;57.51;101340.72;4961665;28;45359;-91
2021/09/13 06:37:39;;;;;;;;;15.33;12.67;;;;;18.24;57.36;101338.06;4959606;28;46240;-93
2021/09/13 06:40:06;;;;;;;;;13.67;13.67;;;;;18.27;57.22;101343.38;4960389;28;45248;-87
2021/09/13 06:42:31;;;;;;;;;12.00;12.00;;;;;18.25;57.80;101345.16;4960275;28;45352;-85
2021/09/13 06:44:57;;;;;;;;;17.00;16.00;;;;;18.28;57.45;101358.44;4958781;28;45396;-82
2021/09/13 06:47:43;;;;;;;;;14.00;14.00;;;;;18.30;58.00;101361.13;4958098;28;46088;-88
2021/09/13 06:50:09;;;;;;;;;15.67;14.00;;;;;18.33;58.05;101363.75;4958405;28;45421;-83
2021/09/13 06:52:34;;;;;;;;;15.67;13.33;;;;;18.28;58.02;101359.34;4959380;28;45478;-86
2021/09/13 06:55:00;;;;;;;;;12.00;12.00;;;;;18.39;57.67;101369.03;4959323;28;45369;-91
2021/09/13 06:57:25;;;;;;;;;12.00;12.00;;;;;18.35;58.00;101365.50;4941807;28;47245;-90
2021/09/13 07:00:01;;;;;;;;;14.00;14.00;;;;;18.34;57.94;101353.09;4943183;28;45404;-90
2021/09/13 07:02:54;;;;;;;;;16.00;15.00;;;;;18.44;58.26;101358.38;4942567;28;45515;-91
2021/09/13 07:05:32;;;;;;;;;16.33;15.33;;;;;18.48;57.88;101360.13;4943582;28;45608;-91
2021/09/13 07:08:09;;;;;;;;;17.00;14.33;;;;;18.48;57.98;101349.47;4942845;28;47342;-91
2021/09/13 07:10:34;;;;;;;;;16.67;14.67;;;;;18.56;58.00;101358.31;4955108;28;44909;-91
2021/09/13 07:13:00;;;;;;;;;17.67;16.00;;;;;18.58;57.71;101351.19;4962346;28;45159;-91
2021/09/13 07:15:25;;;;;;;;;17.00;15.33;;;;;18.50;57.95;101339.69;4963296;28;45240;-91
2021/09/13 07:17:51;;;;;;;;;18.00;15.00;;;;;18.62;58.06;101347.63;4973338;28;45258;-91
2021/09/13 07:20:50;;;;;;;;;15.00;15.00;;;;;18.56;58.30;101329.00;4949283;28;45348;-92
2021/09/13 07:23:15;;;;;;;;;25.33;19.67;;;;;18.58;57.95;101329.00;4979237;28;44973;-90
2021/09/13 07:26:24;;;;;;;;;17.33;17.00;;;;;18.72;57.75;101353.75;4960885;28;45403;-90
2021/09/13 07:28:50;;;;;;;;;19.00;19.00;;;;;18.75;57.94;101348.41;4959913;28;47603;-91
2021/09/13 07:31:16;;;;;;;;;18.00;15.67;;;;;18.84;57.68;101359.91;4960992;28;45242;-91
2021/09/13 07:33:42;;;;;;;;;22.33;20.00;;;;;18.74;57.81;101329.78;4951995;28;45264;-91
2021/09/13 07:36:07;;;;;;;;;20.67;19.00;;;;;18.89;57.55;101357.22;4947294;28;45335;-91
2021/09/13 07:38:33;;;;;;;;;20.67;20.67;;;;;18.75;57.45;101320.91;4963311;28;45416;-91
2021/09/13 07:41:30;;;;;;;;;20.00;17.00;;;;;18.79;57.47;101329.72;4946734;28;45357;-90
2021/09/13 07:44:01;;;;;;;;;18.33;17.33;;;;;18.84;57.85;101331.50;4912219;29;45490;-91
2021/09/13 07:47:04;;;;;;;;;18.67;16.33;;;;;18.88;57.58;101334.13;4917626;29;44808;-90
2021/09/13 07:50:28;;;;;;;;;18.33;15.00;;;;;19.03;57.58;101350.00;4878386;29;47448;-91
2021/09/13 07:52:53;;;;;;;;;19.67;19.67;;;;;19.01;57.43;101335.81;4814854;29;45359;-90
2021/09/13 07:55:42;;;;;;;;;19.00;17.67;;;;;19.12;57.26;101348.16;4795903;29;45468;-90
2021/09/13 07:58:08;;;;;;;;;16.33;15.67;;;;;19.12;57.50;101337.50;4756122;29;45595;-90
2021/09/13 08:01:06;;;;;;;;;27.67;20.00;;;;;19.21;57.14;101340.09;4755516;29;47334;-89
2021/09/13 08:03:34;;;;;;;;;20.33;17.00;;;;;19.26;57.12;101327.63;4742708;29;45345;-89
2021/09/13 08:06:33;;;;;;;;;20.33;16.67;;;;;19.32;56.82;101321.34;4846287;23;45269;-89
2021/09/13 08:09:18;;;;;;;;;17.33;13.67;;;;;19.27;56.80;101304.53;4973394;28;45361;-90
2021/09/13 08:11:44;;;;;;;;;21.00;18.33;;;;;19.31;57.20;101300.91;4962522;28;45456;-90
2021/09/13 08:14:24;;;;;;;;;17.33;15.00;;;;;19.53;56.88;101322.00;4944669;28;45280;-91
2021/09/13 08:16:51;;;;;;;;;16.67;14.67;;;;;19.44;56.43;101294.53;4962055;28;45507;-91
2021/09/13 08:19:17;;;;;;;;;18.00;15.33;;;;;19.56;56.43;101306.00;4944686;28;45577;-91
2021/09/13 08:21:44;;;;;;;;;13.67;13.00;;;;;19.66;56.95;101317.44;4962459;28;45637;-92
2021/09/13 08:24:11;;;;;;;;;17.67;16.33;;;;;19.82;55.66;101325.25;4962346;28;45291;-91
2021/09/13 08:26:36;;;;;;;;;18.67;16.00;;;;;19.81;56.11;101307.47;4944801;28;45444;-93
2021/09/13 08:29:05;;;;;;;;;16.00;15.00;;;;;19.82;55.84;101304.78;4962442;28;45220;-92
2021/09/13 08:32:09;;;;;;;;;20.00;16.67;;;;;19.94;56.22;101306.44;4961900;28;46211;-91
2021/09/13 08:34:36;;;;;;;;;13.67;13.33;;;;;20.15;56.08;101315.09;4933612;28;45676;-91
2021/09/13 08:37:30;;;;;;;;;16.33;16.33;;;;;20.12;55.79;101299.09;4942865;28;45579;-91
2021/09/13 08:39:59;;;;;;;;;12.67;10.00;;;;;20.23;55.61;101305.19;4885689;29;45557;-91
2021/09/13 08:42:26;;;;;;;;;15.33;11.67;;;;;20.27;55.51;101292.69;4885479;29;47220;-92
2021/09/13 08:44:57;;;;;;;;;18.00;15.33;;;;;20.30;55.22;101287.31;4901876;29;45308;-91
2021/09/13 08:47:33;;;;;;;;;17.67;14.67;;;;;20.45;55.57;101304.00;4885834;29;45396;-92
2021/09/13 08:52:27;;;;;;;;;12.67;11.33;;;;;20.60;55.34;101309.09;4938351;28;45444;-92
2021/09/13 08:54:53;;;;;;;;;21.00;16.00;;;;;20.61;54.90;101304.63;4924559;28;45373;-90
2021/09/13 08:57:19;;;;;;;;;16.33;12.33;;;;;20.77;54.82;101328.44;4941527;28;45518;-91
2021/09/13 08:59:47;;;;;;;;;14.67;14.00;;;;;20.86;54.74;101330.06;4940695;28;45365;-89
2021/09/13 09:02:13;;;;;;;;;15.67;11.33;;;;;20.98;54.65;101345.06;4940926;28;48535;-91
2021/09/13 09:07:18;;;;;;;;;14.33;13.67;;;;;21.00;54.12;101329.91;4492912;26;45406;-90
2021/09/13 09:09:45;;;;;;;;;12.33;11.00;;;;;21.19;54.73;101342.94;4925061;28;45383;-91
2021/09/13 09:12:16;;;;;;;;;15.00;12.67;;;;;21.28;53.65;101332.06;4924952;28;47101;-90
2021/09/13 09:14:48;;;;;;;;;11.67;11.00;;;;;21.45;54.61;101330.91;4924057;28;45453;-91
2021/09/13 09:17:26;;;;;;;;;12.67;9.67;;;;;21.73;54.44;101335.69;4924410;28;45474;-90
2021/09/13 09:20:12;;;;;;;;;10.33;10.33;;;;;21.98;52.92;101337.91;4925717;28;45430;-90
2021/09/13 09:22:46;;;;;;;;;9.33;8.33;;;;;22.06;52.71;101314.53;4947005;28;46637;-90
2021/09/13 09:25:35;;;;;;;;;12.67;11.00;;;;;22.40;52.11;101328.94;4938031;28;45099;-90
2021/09/13 09:28:10;;;;;;;;;9.33;9.00;;;;;22.56;52.03;101320.56;4962728;28;44787;-90
2021/09/13 09:31:02;;;;;;;;;9.00;9.00;;;;;22.90;51.72;101318.91;4945235;28;44895;-89
2021/09/13 09:33:28;;;;;;;;;11.33;10.00;;;;;23.21;50.26;101318.09;4935645;28;46822;-89
2021/09/13 09:35:56;;;;;;;;;10.33;9.33;;;;;23.49;50.58;101319.19;4941055;28;45256;-90
2021/09/13 09:38:43;;;;;;;;;11.67;10.00;;;;;23.79;49.59;101321.94;4941954;28;45288;-91
2021/09/13 09:41:11;;;;;;;;;10.67;9.00;;;;;24.01;49.61;101317.72;4980192;23;44883;-91
2021/09/13 09:43:57;;;;;;;;;9.67;9.00;;;;;24.40;49.21;101321.94;4943533;28;48253;-90
2021/09/13 09:46:41;;;;;;;;;10.67;10.67;;;;;24.71;47.79;101314.69;4941848;28;45616;-88
2021/09/13 09:49:17;;;;;;;;;9.00;7.33;;;;;25.07;47.82;101318.91;4960755;28;44707;-87
2021/09/13 09:51:49;;;;;;;;;9.00;8.33;;;;;25.40;47.25;101321.31;4930954;28;45550;-91
2021/09/13 09:54:36;;;;;;;;;10.00;10.00;;;;;25.56;46.42;101296.56;4926798;28;47008;-92
2021/09/13 09:57:08;;;;;;;;;9.33;8.33;;;;;25.81;46.50;101300.16;4909967;28;45425;-91
2021/09/13 09:59:53;;;;;;;;;;;;;;;;;;;;;
2021/09/13 10:03:21;;;;;;;;;15.00;9.00;;;;;26.27;45.71;101265.16;4924116;28;63482;-91
2021/09/13 10:05:49;;;;;;;;;8.67;8.67;;;;;26.53;43.83;101262.34;4879188;29;47231;-91
2021/09/13 10:08:17;;;;;;;;;7.00;7.00;;;;;26.81;44.54;101258.50;4931183;23;45463;-93
2021/09/13 10:10:46;;;;;;;;;7.33;7.00;;;;;27.15;43.71;101267.84;4946508;28;45312;-90
2021/09/13 10:13:11;;;;;;;;;10.67;7.33;;;;;27.32;43.88;101249.13;4949804;28;45388;-90
2021/09/13 10:15:40;;;;;;;;;7.67;7.00;;;;;27.62;43.65;101248.66;4970325;28;45461;-90
2021/09/13 10:18:05;;;;;;;;;13.67;12.00;;;;;28.05;42.21;101269.19;4949258;28;45391;-91
2021/09/13 10:20:41;;;;;;;;;;;;;;;;;;;;;
2021/09/13 10:23:10;;;;;;;;;9.33;9.33;;;;;29.11;41.99;101263.97;4970412;28;64011;-90
2021/09/13 10:25:36;;;;;;;;;7.33;6.00;;;;;29.94;40.70;101264.94;4957004;28;47210;-91
2021/09/13 10:28:06;;;;;;;;;8.00;6.00;;;;;30.76;38.82;101260.28;4994260;23;45382;-91
2021/09/13 10:33:13;;;;;;;;;6.67;6.67;;;;;32.18;37.30;101245.19;5114563;23;60780;-91
2021/09/13 10:36:06;;;;;;;;;6.00;6.00;;;;;33.09;36.14;101247.22;4970042;28;45317;-90
2021/09/13 10:42:08;;;;;;;;;6.00;6.00;;;;;34.37;33.48;101249.94;4846324;29;45453;-91
2021/09/13 10:44:36;;;;;;;;;6.00;6.00;;;;;34.96;33.73;101264.53;4861691;29;44899;-91
2021/09/13 10:47:03;;;;;;;;;7.00;6.33;;;;;35.53;32.08;101258.25;4830485;29;47335;-91
2021/09/13 10:49:32;;;;;;;;;9.00;7.33;;;;;36.10;31.80;101260.03;5326066;23;46322;-90
2021/09/13 10:52:31;;;;;;;;;7.67;7.33;;;;;36.69;30.14;101264.28;4966394;28;44662;-91
2021/09/13 10:55:26;;;;;;;;;6.00;6.00;;;;;36.88;29.69;101238.94;4946853;28;45486;-92
2021/09/13 10:57:52;;;;;;;;;6.67;6.00;;;;;37.42;29.45;101259.81;4887003;29;46765;-90
2021/09/13 11:07:05;;;;;;;;;6.67;6.33;;;;;38.85;27.57;101253.25;4943617;28;45523;-91
2021/09/13 11:09:33;;;;;;;;;7.00;6.00;;;;;39.30;27.34;101242.56;4869303;29;47359;-90
2021/09/13 11:12:00;;;;;;;;;8.00;5.00;;;;;39.58;26.86;101237.03;4884718;28;45503;-91
2021/09/13 11:17:32;;;;;;;;;6.00;6.00;;;;;40.31;25.38;101246.41;5331865;23;46888;-92
2021/09/13 11:20:05;;;;;;;;;5.33;5.00;;;;;40.50;25.43;101232.47;4948892;28;48418;-91
2021/09/13 11:22:42;;;;;;;;;7.33;5.00;;;;;40.46;24.74;101228.31;4948994;28;45441;-91
2021/09/13 11:25:10;;;;;;;;;4.00;4.00;;;;;40.09;23.90;101218.31;4950388;28;45428;-91
2021/09/13 11:27:39;;;;;;;;;8.33;5.33;;;;;39.63;23.88;101219.22;5557453;23;47208;-91
2021/09/13 11:30:18;;;;;;;;;;;;;;;;;;;;;
2021/09/13 11:32:49;;;;;;;;;4.33;3.00;;;;;38.39;25.29;101212.69;5000431;28;72353;-91
2021/09/13 11:38:05;;;;;;;;;7.00;5.00;;;;;37.34;25.99;101199.34;4987610;23;45393;-93
2021/09/13 11:40:36;;;;;;;;;4.33;4.33;;;;;37.05;26.19;101214.66;4948634;28;46985;-93
2021/09/13 11:43:13;;;;;;;;;4.67;4.67;;;;;36.63;26.64;101208.19;4959380;28;45584;-93
2021/09/13 11:48:18;;;;;;;;;6.00;5.00;;;;;36.18;27.02;101201.94;4971099;23;60918;-93
2021/09/13 11:53:26;;;;;;;;;;;;;;;;;;;;;
2021/09/13 11:56:03;;;;;;;;;6.33;5.33;;;;;35.56;27.26;101194.25;4967408;28;67791;-91
2021/09/13 11:58:52;;;;;;;;;;;;;;;;;;;;;
2021/09/13 12:01:38;;;;;;;;;;;;;;;;;;;;;
2021/09/13 12:04:31;;;;;;;;;4.33;4.33;;;;;34.66;27.33;101167.66;5311452;23;72049;-91
2021/09/13 12:07:21;;;;;;;;;5.67;4.33;;;;;34.27;27.95;101181.56;4943504;28;45556;-93
2021/09/13 12:09:59;;;;;;;;;5.67;4.67;;;;;33.81;28.67;101164.97;4945165;28;45494;-93
2021/09/13 12:12:34;;;;;;;;;5.00;5.00;;;;;33.62;29.40;101167.19;4944809;28;45400;-93
2021/09/13 12:17:40;;;;;;;;;5.00;5.00;;;;;33.33;29.09;101169.34;5158501;23;67624;-92
2021/09/13 12:20:40;;;;;;;;;;;;;;;;;;;;;
2021/09/13 12:26:11;;;;;;;;;4.00;4.00;;;;;32.68;29.73;101164.81;5194956;23;47151;-93
2021/09/13 12:31:25;;;;;;;;;;;;;;;;;;;;;
2021/09/13 12:34:05;;;;;;;;;;;;;;;;;;;;;
2021/09/13 12:37:07;;;;;;;;;;;;;;;;;;;;;
2021/09/13 12:40:22;;;;;;;;;4.00;4.00;;;;;31.55;31.72;101143.25;5319457;23;68703;-93
2021/09/13 12:43:25;;;;;;;;;4.00;4.00;;;;;31.26;32.09;101126.09;4969468;28;45296;-92
2021/09/13 13:08:47;;;;;;;;;;;;;;;;;;;;;
2021/09/13 13:15:00;;;;;;;;;;;;;;;;;;;;;
2021/09/13 13:17:52;;;;;;;;;;;;;;;;;;;;;
2021/09/13 13:20:33;;;;;;;;;;;;;;;;;;;;;
2021/09/13 13:28:49;;;;;;;;;;;;;;;;;;;;;
2021/09/13 13:31:42;;;;;;;;;5.00;5.00;;;;;28.69;36.13;101068.66;4963526;28;75719;-94
2021/09/13 13:34:32;;;;;;;;;7.67;6.00;;;;;28.71;36.65;101080.28;4950771;28;45471;-93
2021/09/13 13:39:45;;;;;;;;;6.00;4.33;;;;;28.54;36.74;101084.75;5675888;23;46989;-93
2021/09/13 13:42:35;;;;;;;;;10.00;7.00;;;;;28.44;36.65;101073.56;5068417;23;45544;-93
2021/09/13 13:45:02;;;;;;;;;6.67;6.00;;;;;28.33;37.03;101060.59;4980695;23;45571;-92
2021/09/13 13:47:47;;;;;;;;;4.33;4.00;;;;;28.30;37.29;101063.44;4957905;28;44717;-93
2021/09/13 13:52:57;;;;;;;;;7.00;7.00;;;;;28.37;37.61;101073.94;5074579;23;45799;-94
2021/09/13 13:59:01;;;;;;;;;7.00;6.00;;;;;28.38;37.98;101059.47;4928146;28;44830;-93
2021/09/13 14:08:02;;;;;;;;;;;;;;;;;;;;;
2021/09/13 14:10:28;;;;;;;;;7.00;7.00;;;;;28.14;38.34;101057.09;4980468;28;67922;-93
2021/09/13 14:16:04;;;;;;;;;;;;;;;;;;;;;
2021/09/13 14:25:39;;;;;;;;;;;;;;;;;;;;;
2021/09/13 14:33:35;;;;;;;;;;;;;;;;;;;;;
2021/09/13 14:36:08;;;;;;;;;8.33;5.33;;;;;27.75;39.48;101051.84;4967654;28;63895;-92
2021/09/13 14:47:04;;;;;;;;;8.67;8.00;;;;;27.43;39.90;101016.50;4902153;29;45585;-92
2021/09/13 14:49:48;;;;;;;;;;;;;;;;;;;;;
2021/09/13 14:55:41;;;;;;;;;;;;;;;;;;;;;
2021/09/13 15:03:41;;;;;;;;;6.33;6.33;;;;;27.20;39.93;101011.28;5038449;23;46099;-93
2021/09/13 15:06:42;;;;;;;;;;;;;;;;;;;;;
2021/09/13 15:09:20;;;;;;;;;7.33;4.67;;;;;27.22;40.48;101019.31;4958663;23;63037;-93
2021/09/13 15:15:12;;;;;;;;;6.67;6.00;;;;;27.23;41.25;101021.03;4942189;28;45393;-94
2021/09/13 15:18:11;;;;;;;;;;;;;;;;;;;;;
2021/09/13 15:20:45;;;;;;;;;6.00;6.00;;;;;27.17;41.16;101023.09;4882241;29;63340;-93
2021/09/13 15:23:45;;;;;;;;;;;;;;;;;;;;;
2021/09/13 15:32:34;;;;;;;;;6.33;6.33;;;;;26.85;41.38;101006.59;4826946;29;44940;-92
2021/09/13 15:36:00;;;;;;;;;;;;;;;;;;;;;
2021/09/13 15:38:54;;;;;;;;;;;;;;;;;;;;;
2021/09/13 15:41:20;;;;;;;;;5.67;5.00;;;;;26.75;41.61;101008.88;5019810;23;68292;-93
2021/09/13 15:43:46;;;;;;;;;6.00;6.00;;;;;26.80;41.61;101019.44;4950656;28;45674;-91
2021/09/13 15:46:27;;;;;;;;;7.00;5.00;;;;;26.74;42.01;101019.69;4948061;28;47207;-94
2021/09/13 15:49:07;;;;;;;;;;;;;;;;;;;;;
2021/09/13 15:51:49;;;;;;;;;6.00;5.00;;;;;26.58;42.48;101013.22;4971782;28;69301;-92
2021/09/13 15:54:20;;;;;;;;;7.67;6.00;;;;;26.51;42.57;101011.75;4955710;28;45659;-92
2021/09/13 15:56:53;;;;;;;;;7.00;5.33;;;;;26.49;41.88;101021.72;4951912;28;48313;-91
2021/09/13 15:59:48;;;;;;;;;6.33;6.33;;;;;26.35;42.56;101008.84;4946868;28;45450;-92
2021/09/13 16:02:25;;;;;;;;;5.67;5.67;;;;;26.35;42.85;101009.72;4948773;28;45560;-92
2021/09/13 16:05:03;;;;;;;;;5.33;5.33;;;;;26.25;42.95;101003.84;4947903;28;45336;-93
2021/09/13 16:07:39;;;;;;;;;;;;;;;;;;;;;
2021/09/13 16:10:30;;;;;;;;;6.33;5.67;;;;;26.22;43.16;100998.63;4964367;28;70631;-92
2021/09/13 16:13:05;;;;;;;;;7.00;7.00;;;;;26.10;42.88;100983.88;4886519;29;45413;-94
2021/09/13 16:15:31;;;;;;;;;5.33;5.00;;;;;26.16;42.75;101001.59;4885431;29;45420;-93
2021/09/13 16:18:37;;;;;;;;;;;;;;;;;;;;;
2021/09/13 16:21:19;;;;;;;;;;;;;;;;;;;;;
2021/09/13 16:23:48;;;;;;;;;7.00;6.00;;;;;25.97;43.41;100988.94;4871627;28;67817;-93
2021/09/13 16:26:21;;;;;;;;;8.00;6.67;;;;;25.89;43.22;100981.19;4866920;29;45268;-93
2021/09/13 16:29:05;;;;;;;;;11.33;11.33;;;;;25.90;43.89;100991.03;4866844;29;47458;-91
2021/09/13 16:31:51;;;;;;;;;11.67;9.00;;;;;25.77;43.83;100979.91;4867580;29;45326;-92
2021/09/13 16:34:20;;;;;;;;;8.67;8.67;;;;;25.81;43.72;100994.09;4855664;29;45386;-90
2021/09/13 16:36:47;;;;;;;;;11.67;10.33;;;;;25.83;43.72;100992.22;4863249;29;44965;-92
2021/09/13 16:39:23;;;;;;;;;12.00;11.00;;;;;25.81;43.87;101006.69;4880294;29;45416;-91
2021/09/13 16:41:48;;;;;;;;;9.00;7.33;;;;;25.70;44.03;100988.31;4869508;29;45291;-92
2021/09/13 16:44:26;;;;;;;;;8.00;6.33;;;;;25.55;44.15;100975.38;4871294;29;44801;-93
2021/09/13 16:46:53;;;;;;;;;9.67;6.67;;;;;25.52;44.17;100963.88;4872961;29;44849;-92
2021/09/13 16:49:24;;;;;;;;;7.67;7.67;;;;;25.53;43.90;100979.97;4916149;28;45184;-94
2021/09/13 16:51:51;;;;;;;;;8.00;6.00;;;;;25.53;44.29;100976.41;4966213;28;44697;-94
2021/09/13 16:54:25;;;;;;;;;8.67;8.00;;;;;25.45;44.91;100976.72;4974613;28;45322;-95
2021/09/13 16:56:52;;;;;;;;;6.67;6.33;;;;;25.40;44.33;100973.34;4943973;28;45472;-94
2021/09/13 16:59:29;;;;;;;;;;;;;;;;;;;;;
2021/09/13 17:01:58;;;;;;;;;7.67;7.00;;;;;25.47;44.88;100990.97;4972714;28;71906;-95
2021/09/13 17:04:23;;;;;;;;;10.67;8.33;;;;;25.44;44.80;100988.44;4953804;28;45452;-94
2021/09/13 17:06:50;;;;;;;;;8.33;7.67;;;;;25.40;45.01;100984.13;4950886;28;45593;-96
2021/09/13 17:09:17;;;;;;;;;7.00;6.00;;;;;25.32;44.90;100982.59;4950842;28;47189;-94
2021/09/13 17:11:45;;;;;;;;;8.67;7.33;;;;;25.29;44.81;100981.88;4969636;28;45195;-93
2021/09/13 17:14:21;;;;;;;;;7.00;7.00;;;;;25.25;45.02;100980.25;4952569;28;45422;-92
2021/09/13 17:16:59;;;;;;;;;7.00;7.00;;;;;25.14;45.45;100976.19;4943459;28;45871;-93
2021/09/13 17:19:25;;;;;;;;;7.33;7.33;;;;;25.20;45.45;100988.50;4957082;28;47284;-95
2021/09/13 17:21:51;;;;;;;;;9.00;7.67;;;;;25.13;45.10;100987.00;4957486;28;45375;-94
2021/09/13 17:24:17;;;;;;;;;9.00;7.67;;;;;25.02;45.16;100969.47;4958534;28;45426;-93
2021/09/13 17:26:43;;;;;;;;;8.00;8.00;;;;;25.04;45.31;100988.25;4954397;28;45334;-92
2021/09/13 17:29:11;;;;;;;;;12.33;8.00;;;;;25.02;45.40;100980.25;4947727;28;47054;-93
2021/09/13 17:31:40;;;;;;;;;6.00;6.00;;;;;25.02;45.42;100992.81;4945834;28;45342;-93
2021/09/13 17:34:06;;;;;;;;;7.33;6.33;;;;;24.96;45.74;100980.41;4962772;28;45248;-91
2021/09/13 17:36:31;;;;;;;;;9.00;6.67;;;;;25.02;45.57;101001.75;4962017;28;45282;-92
2021/09/13 17:38:57;;;;;;;;;6.67;6.67;;;;;24.96;45.61;100985.81;4972737;28;45247;-91
2021/09/13 17:41:23;;;;;;;;;8.00;8.00;;;;;24.81;46.03;100966.66;4976541;28;45310;-93
2021/09/13 17:43:52;;;;;;;;;9.33;7.33;;;;;24.95;45.88;100989.44;4962895;28;44752;-93
2021/09/13 17:46:20;;;;;;;;;8.00;8.00;;;;;24.91;45.76;100977.06;4963535;28;44999;-94
2021/09/13 17:48:48;;;;;;;;;6.00;6.00;;;;;24.69;46.09;100940.25;4971689;28;45540;-93
2021/09/13 17:51:16;;;;;;;;;6.00;6.00;;;;;24.68;46.21;100944.78;4946919;28;45881;-94
2021/09/13 17:53:46;;;;;;;;;7.00;7.00;;;;;24.76;46.30;100963.28;4947676;28;45362;-94
2021/09/13 17:56:17;;;;;;;;;8.67;6.67;;;;;24.73;46.24;100964.25;4949259;28;45319;-94
2021/09/13 17:58:44;;;;;;;;;9.00;7.00;;;;;24.75;46.71;100972.25;4946422;28;47065;-93
2021/09/13 18:01:15;;;;;;;;;7.00;6.33;;;;;24.73;46.66;100979.50;4962516;28;45368;-94
2021/09/13 18:03:41;;;;;;;;;8.00;8.00;;;;;24.64;46.70;100959.25;4956339;28;45335;-93
2021/09/13 18:06:17;;;;;;;;;6.33;6.00;;;;;24.53;46.38;100946.22;4944930;28;45581;-92